createdAt,value
2023-02-03T00:00:39.226Z,-2.33
2023-02-03T00:03:41.561Z,-2.40
2023-02-03T00:06:44.026Z,-2.48
2023-02-03T00:09:46.420Z,-2.18
2023-02-03T00:12:53.056Z,-2.13
2023-02-03T00:15:55.457Z,-2.17
2023-02-03T00:18:57.806Z,-2.18
2023-02-03T00:22:00.148Z,-2.48
2023-02-03T00:25:02.497Z,-2.16
2023-02-03T00:28:05.827Z,-2.27
2023-02-03T00:31:24.677Z,-2.03
2023-02-03T00:34:30.733Z,-2.04
2023-02-03T00:37:33.146Z,-2.03
2023-02-03T00:40:36.627Z,-2.21
2023-02-03T00:43:38.989Z,-2.22
2023-02-03T00:46:41.280Z,-2.28
2023-02-03T00:49:43.615Z,-2.13
2023-02-03T00:52:46.022Z,-1.94
2023-02-03T00:55:48.431Z,-2.18
2023-02-03T00:58:50.779Z,-2.60
2023-02-03T01:01:53.239Z,-2.51
2023-02-03T01:04:55.614Z,-2.49
2023-02-03T01:07:57.911Z,-2.50
2023-02-03T01:11:00.240Z,-2.50
2023-02-03T01:14:02.700Z,-2.37
2023-02-03T01:17:05.602Z,-2.45
2023-02-03T01:20:08.411Z,-2.27
2023-02-03T01:23:10.776Z,-2.23
2023-02-03T01:26:18.027Z,-2.34
2023-02-03T01:29:20.423Z,-2.42
2023-02-03T01:32:24.978Z,-2.45
2023-02-03T01:35:27.354Z,-2.41
2023-02-03T01:38:29.760Z,-2.46
2023-02-03T01:41:34.736Z,-2.48
2023-02-03T01:44:47.848Z,-2.54
2023-02-03T01:47:59.376Z,-2.45
2023-02-03T01:51:02.931Z,-2.43
2023-02-03T01:54:05.871Z,-2.35
2023-02-03T01:57:19.095Z,-2.15
2023-02-03T02:00:21.626Z,-2.14
2023-02-03T02:03:27.954Z,-2.09
2023-02-03T02:06:30.312Z,-2.17
2023-02-03T02:09:32.722Z,-2.22
2023-02-03T02:12:35.091Z,-2.11
2023-02-03T02:15:55.854Z,-2.11
2023-02-03T02:19:27.053Z,-2.10
2023-02-03T02:23:08.337Z,-2.18
2023-02-03T02:26:22.661Z,-2.21
2023-02-03T02:29:37.451Z,-2.12
2023-02-03T02:32:59.053Z,-2.19
2023-02-03T02:36:39.415Z,-2.21
2023-02-03T02:39:57.003Z,-2.28
2023-02-03T02:43:13.863Z,-2.25
2023-02-03T02:46:23.476Z,-2.60
2023-02-03T02:49:32.093Z,-2.40
2023-02-03T02:52:36.860Z,-2.26
2023-02-03T02:55:40.770Z,-2.37
2023-02-03T02:58:46.653Z,-2.18
2023-02-03T03:01:49.045Z,-2.20
2023-02-03T03:04:52.615Z,-2.17
2023-02-03T03:08:02.297Z,-2.21
2023-02-03T03:11:05.055Z,-2.15
2023-02-03T03:14:08.837Z,-2.21
2023-02-03T03:17:13.309Z,-2.25
2023-02-03T03:20:20.433Z,-2.18
2023-02-03T03:23:28.507Z,-2.22
2023-02-03T03:26:37.122Z,-2.10
2023-02-03T03:29:44.979Z,-2.14
2023-02-03T03:32:47.465Z,-2.25
2023-02-03T03:36:14.209Z,-2.24
2023-02-03T03:39:25.328Z,-2.25
2023-02-03T03:42:41.851Z,-2.22
2023-02-03T03:46:08.958Z,-2.14
2023-02-03T03:49:12.591Z,-2.11
2023-02-03T03:52:19.428Z,-2.13
2023-02-03T03:55:22.262Z,-2.11
2023-02-03T03:58:31.239Z,-2.13
2023-02-03T04:01:33.882Z,-2.13
2023-02-03T04:04:37.407Z,-2.12
2023-02-03T04:07:43.577Z,-2.08
2023-02-03T04:10:46.180Z,-2.10
2023-02-03T04:13:48.569Z,-2.05
2023-02-03T04:16:50.854Z,-2.13
2023-02-03T04:19:53.207Z,-2.01
2023-02-03T04:22:55.634Z,-1.93
2023-02-03T04:25:58.060Z,-1.95
2023-02-03T04:29:00.406Z,-2.01
2023-02-03T04:32:02.960Z,-2.00
2023-02-03T04:35:06.748Z,-1.88
2023-02-03T04:38:08.988Z,-1.96
2023-02-03T04:41:11.368Z,-2.04
2023-02-03T04:44:13.712Z,-1.90
2023-02-03T04:47:16.230Z,-1.94
2023-02-03T04:50:18.640Z,-1.95
2023-02-03T04:53:21.087Z,-1.86
2023-02-03T04:56:23.500Z,-1.87
2023-02-03T04:59:25.950Z,-1.94
2023-02-03T05:02:28.268Z,-2.07
2023-02-03T05:05:30.650Z,-2.19
2023-02-03T05:08:33.070Z,-2.14
2023-02-03T05:11:35.453Z,-2.08
2023-02-03T05:14:37.837Z,-2.23
2023-02-03T05:17:40.446Z,-2.42
2023-02-03T05:20:42.760Z,-2.20
2023-02-03T05:23:45.178Z,-2.20
2023-02-03T05:26:47.568Z,-2.18
2023-02-03T05:29:49.992Z,-2.32
2023-02-03T05:32:52.251Z,-2.24
2023-02-03T05:35:54.920Z,-2.25
2023-02-03T05:38:57.244Z,-2.15
2023-02-03T05:41:59.548Z,-2.23
2023-02-03T05:45:01.875Z,-2.26
2023-02-03T05:48:04.577Z,-2.30
2023-02-03T05:51:06.882Z,-2.26
2023-02-03T05:54:09.966Z,-2.34
2023-02-03T05:57:13.590Z,-2.37
2023-02-03T06:00:16.291Z,-2.30
2023-02-03T06:03:18.671Z,-2.29
2023-02-03T06:06:21.218Z,-2.38
2023-02-03T06:09:23.542Z,-2.32
2023-02-03T06:12:28.209Z,-2.30
2023-02-03T06:15:31.449Z,-2.35
2023-02-03T06:18:33.764Z,-2.31
2023-02-03T06:21:36.111Z,-2.43
2023-02-03T06:24:38.749Z,-2.29
2023-02-03T06:27:41.415Z,-2.21
2023-02-03T06:30:44.071Z,-2.21
2023-02-03T06:33:46.524Z,-2.19
2023-02-03T06:36:49.297Z,-2.21
2023-02-03T06:39:51.586Z,-2.10
2023-02-03T06:42:53.926Z,-1.88
2023-02-03T06:45:56.228Z,-2.10
2023-02-03T06:48:58.678Z,-2.02
2023-02-03T06:52:01.002Z,-2.08
2023-02-03T06:55:04.127Z,-2.04
2023-02-03T06:58:06.418Z,-2.12
2023-02-03T07:01:08.768Z,-2.10
2023-02-03T07:04:11.142Z,-1.94
2023-02-03T07:07:13.659Z,-1.85
2023-02-03T07:10:16.165Z,-1.96
2023-02-03T07:13:18.428Z,-1.78
2023-02-03T07:16:21.072Z,-1.94
2023-02-03T07:19:23.445Z,-1.79
2023-02-03T07:22:25.762Z,-1.91
2023-02-03T07:25:28.152Z,-1.73
2023-02-03T07:28:31.203Z,-1.99
2023-02-03T07:31:33.876Z,-1.63
2023-02-03T07:34:36.311Z,-1.57
2023-02-03T07:37:38.657Z,-1.60
2023-02-03T07:40:40.973Z,-1.52
2023-02-03T07:43:43.309Z,-1.48
2023-02-03T07:46:45.824Z,-1.53
2023-02-03T07:49:48.302Z,-1.41
2023-02-03T07:52:52.317Z,-1.40
2023-02-03T07:55:54.610Z,-1.50
2023-02-03T07:58:57.185Z,-1.37
2023-02-03T08:01:59.597Z,-1.34
2023-02-03T08:05:02.127Z,-1.40
2023-02-03T08:08:04.683Z,-1.38
2023-02-03T08:11:07.123Z,-1.26
2023-02-03T08:14:09.501Z,-1.26
2023-02-03T08:17:12.046Z,-1.18
2023-02-03T08:20:14.378Z,-1.01
2023-02-03T08:23:16.806Z,-0.92
2023-02-03T08:26:19.221Z,-0.80
2023-02-03T08:29:21.529Z,-0.87
2023-02-03T08:32:25.026Z,-0.86
2023-02-03T08:35:27.465Z,-0.96
2023-02-03T08:38:30.021Z,-0.96
2023-02-03T08:41:33.487Z,-0.79
2023-02-03T08:44:36.158Z,-0.71
2023-02-03T08:47:39.408Z,-0.86
2023-02-03T08:50:44.565Z,-0.79
2023-02-03T08:53:46.871Z,-0.80
2023-02-03T08:56:49.208Z,-0.73
2023-02-03T08:59:51.656Z,-0.63
2023-02-03T09:02:54.074Z,-0.63
2023-02-03T09:05:57.441Z,-0.48
2023-02-03T09:09:00.047Z,-0.60
2023-02-03T09:12:02.635Z,-0.43
2023-02-03T09:15:05.313Z,-0.59
2023-02-03T09:18:07.645Z,-0.72
2023-02-03T09:21:27.466Z,-0.67
2023-02-03T09:24:35.519Z,-0.68
2023-02-03T09:27:37.991Z,-0.76
2023-02-03T09:30:40.447Z,-0.79
2023-02-03T09:33:42.843Z,-0.82
2023-02-03T09:36:45.177Z,-0.69
2023-02-03T09:39:49.132Z,-0.84
2023-02-03T09:43:03.593Z,-0.76
2023-02-03T09:46:16.676Z,-0.74
2023-02-03T09:49:21.730Z,-0.77
2023-02-03T09:52:26.936Z,-0.69
2023-02-03T09:55:37.221Z,-0.89
2023-02-03T09:58:39.618Z,-0.74
2023-02-03T10:01:48.450Z,-0.70
2023-02-03T10:04:56.636Z,-0.61
2023-02-03T10:08:37.153Z,-0.68
2023-02-03T10:11:57.644Z,-0.78
2023-02-03T10:14:59.975Z,-0.71
2023-02-03T10:18:14.913Z,-0.72
2023-02-03T10:21:29.227Z,-0.80
2023-02-03T10:24:45.126Z,-0.79
2023-02-03T10:27:48.368Z,-0.76
2023-02-03T10:30:56.975Z,-1.01
2023-02-03T10:34:01.768Z,-0.66
2023-02-03T10:37:38.903Z,-0.72
2023-02-03T10:40:41.259Z,-0.62
2023-02-03T10:43:52.972Z,-0.73
2023-02-03T10:46:55.367Z,-0.55
2023-02-03T10:49:58.898Z,-0.64
2023-02-03T10:53:19.290Z,-0.61
2023-02-03T10:56:31.074Z,-0.74
2023-02-03T10:59:38.025Z,-0.60
2023-02-03T11:02:40.452Z,-0.73
2023-02-03T11:05:43.523Z,-0.74
2023-02-03T11:08:51.381Z,-0.70
2023-02-03T11:12:07.018Z,-0.78
2023-02-03T11:15:15.761Z,-0.61
2023-02-03T11:18:42.755Z,-0.50
2023-02-03T11:22:03.034Z,-0.75
2023-02-03T11:25:17.257Z,-0.66
2023-02-03T11:28:19.774Z,-0.26
2023-02-03T11:31:25.027Z,-0.23
2023-02-03T11:34:38.249Z,-0.20
2023-02-03T11:37:45.750Z,-0.34
2023-02-03T11:41:00.323Z,-0.24
2023-02-03T11:44:12.223Z,-0.29
2023-02-03T11:47:17.004Z,-0.49
2023-02-03T11:50:42.166Z,-0.46
2023-02-03T11:53:57.871Z,-0.23
2023-02-03T11:57:18.284Z,-0.43
2023-02-03T12:00:43.755Z,-0.62
2023-02-03T12:04:13.545Z,-0.61
2023-02-03T12:07:34.440Z,-0.91
2023-02-03T12:11:00.988Z,-1.24
2023-02-03T12:14:36.020Z,-1.21
2023-02-03T12:17:49.955Z,-1.16
2023-02-03T12:21:10.192Z,-1.35
2023-02-03T12:25:08.071Z,-1.15
2023-02-03T12:28:33.283Z,-1.51
2023-02-03T12:31:51.956Z,-1.61
2023-02-03T12:35:14.334Z,-1.51
2023-02-03T12:38:36.560Z,-1.52
2023-02-03T12:41:42.296Z,-1.91
2023-02-03T12:44:48.176Z,-1.97
2023-02-03T12:47:57.390Z,-2.07
2023-02-03T12:51:03.775Z,-1.97
2023-02-03T12:54:33.117Z,-1.87
2023-02-03T12:57:41.405Z,-1.61
2023-02-03T13:00:57.180Z,-2.22
2023-02-03T13:04:16.538Z,-2.02
2023-02-03T13:07:39.049Z,-1.78
2023-02-03T13:10:51.503Z,-1.94
2023-02-03T13:13:59.814Z,-2.10
2023-02-03T13:17:29.601Z,-2.21
2023-02-03T13:20:36.220Z,-1.80
2023-02-03T13:23:47.627Z,-2.19
2023-02-03T13:26:59.332Z,-2.23
2023-02-03T13:30:20.105Z,-2.18
2023-02-03T13:33:31.777Z,-2.10
2023-02-03T13:37:04.052Z,-2.09
2023-02-03T13:40:37.485Z,-2.06
2023-02-03T13:43:42.077Z,-2.17
2023-02-03T13:46:48.519Z,-2.28
2023-02-03T13:49:56.108Z,-2.27
2023-02-03T13:53:03.784Z,-2.29
2023-02-03T13:56:09.435Z,-1.93
2023-02-03T13:59:14.811Z,-2.18
2023-02-03T14:02:20.031Z,-1.72
2023-02-03T14:05:44.424Z,-1.98
2023-02-03T14:08:48.904Z,-2.09
2023-02-03T14:11:52.664Z,-2.16
2023-02-03T14:14:55.015Z,-2.24
2023-02-03T14:18:07.271Z,-2.27
2023-02-03T14:21:16.893Z,-2.26
2023-02-03T14:24:19.891Z,-2.39
2023-02-03T14:27:25.142Z,-2.37
2023-02-03T14:30:27.614Z,-2.24
2023-02-03T14:33:49.318Z,-2.34
2023-02-03T14:36:55.024Z,-2.22
2023-02-03T14:40:00.254Z,-2.22
2023-02-03T14:43:20.936Z,-2.25
2023-02-03T14:46:49.316Z,-2.31
2023-02-03T14:50:19.931Z,-2.30
2023-02-03T14:53:43.877Z,-2.24
2023-02-03T14:57:18.486Z,-2.18
2023-02-03T15:00:21.538Z,-1.98
2023-02-03T15:03:25.701Z,-2.06
2023-02-03T15:06:42.672Z,-2.17
2023-02-03T15:09:46.501Z,-2.31
2023-02-03T15:12:56.410Z,-2.30
2023-02-03T15:16:01.809Z,-2.26
2023-02-03T15:19:10.602Z,-2.25
2023-02-03T15:22:27.533Z,-1.87
2023-02-03T15:25:31.419Z,-2.18
2023-02-03T15:28:33.617Z,-2.03
2023-02-03T15:31:45.846Z,-1.93
2023-02-03T15:34:50.101Z,-1.60
2023-02-03T15:37:56.352Z,-2.14
2023-02-03T15:40:59.399Z,-2.21
2023-02-03T15:44:05.024Z,-2.27
2023-02-03T15:47:19.550Z,-2.25
2023-02-03T15:50:36.139Z,-2.21
2023-02-03T15:53:49.690Z,-2.21
2023-02-03T15:56:57.576Z,-2.29
2023-02-03T16:00:02.320Z,-2.34
2023-02-03T16:03:29.187Z,-2.49
2023-02-03T16:06:39.356Z,-2.53
2023-02-03T16:09:41.994Z,-2.56
2023-02-03T16:12:44.296Z,-2.51
2023-02-03T16:16:01.703Z,-2.34
2023-02-03T16:19:07.586Z,-2.44
2023-02-03T16:22:31.658Z,-2.50
2023-02-03T16:25:35.262Z,-2.58
2023-02-03T16:28:56.566Z,-2.66
2023-02-03T16:32:18.182Z,-2.65
2023-02-03T16:35:39.362Z,-2.64
2023-02-03T16:39:10.237Z,-2.66
2023-02-03T16:42:39.369Z,-2.73
2023-02-03T16:46:00.319Z,-2.73
2023-02-03T16:49:21.494Z,-2.67
2023-02-03T16:52:23.831Z,-2.71
2023-02-03T16:55:26.194Z,-2.76
2023-02-03T16:58:28.759Z,-2.79
2023-02-03T17:01:31.085Z,-2.73
2023-02-03T17:04:33.818Z,-2.97
2023-02-03T17:07:36.114Z,-2.74
2023-02-03T17:10:40.450Z,-2.81
2023-02-03T17:13:42.862Z,-2.80
2023-02-03T17:16:45.351Z,-2.83
2023-02-03T17:19:47.701Z,-2.81
2023-02-03T17:22:53.440Z,-2.81
2023-02-03T17:25:55.884Z,-2.88
2023-02-03T17:29:03.249Z,-2.74
2023-02-03T17:32:06.053Z,-2.87
2023-02-03T17:35:08.662Z,-2.81
2023-02-03T17:38:12.226Z,-2.81
2023-02-03T17:54:41.938Z,-2.98
2023-02-03T17:57:44.302Z,-2.84
2023-02-03T18:00:46.630Z,-2.84
2023-02-03T18:03:50.422Z,-2.92
2023-02-03T18:06:54.578Z,-2.87
2023-02-03T18:09:56.902Z,-2.92
2023-02-03T18:12:59.294Z,-2.84
2023-02-03T18:16:01.612Z,-2.91
2023-02-03T18:19:06.621Z,-2.95
2023-02-03T18:22:09.011Z,-2.89
2023-02-03T18:25:12.743Z,-3.00
2023-02-03T18:28:16.096Z,-3.01
2023-02-03T18:31:18.626Z,-2.91
2023-02-03T18:34:21.029Z,-2.90
2023-02-03T18:37:23.413Z,-2.98
2023-02-03T18:40:25.856Z,-3.02
2023-02-03T18:43:28.244Z,-3.12
2023-02-03T18:46:32.417Z,-3.05
2023-02-03T18:49:36.541Z,-3.14
2023-02-03T18:52:39.060Z,-3.11
2023-02-03T18:55:44.754Z,-3.13
2023-02-03T18:58:48.017Z,-3.15
2023-02-03T19:01:51.136Z,-3.23
2023-02-03T19:04:53.472Z,-3.17
2023-02-03T19:07:55.852Z,-3.22
2023-02-03T19:10:58.233Z,-3.19
2023-02-03T19:14:00.694Z,-3.31
2023-02-03T19:17:04.714Z,-3.28
2023-02-03T19:20:07.753Z,-3.38
2023-02-03T19:23:12.109Z,-3.27
2023-02-03T19:26:14.498Z,-3.26
2023-02-03T19:29:17.220Z,-3.22
2023-02-03T19:32:19.594Z,-3.45
2023-02-03T19:35:22.109Z,-3.24
2023-02-03T19:38:24.475Z,-3.28
2023-02-03T19:41:27.704Z,-3.33
2023-02-03T19:44:30.050Z,-3.30
2023-02-03T19:47:32.480Z,-3.29
2023-02-03T19:50:36.886Z,-3.32
2023-02-03T19:53:39.312Z,-3.29
2023-02-03T19:56:42.644Z,-3.24
2023-02-03T19:59:45.020Z,-3.31
2023-02-03T20:02:47.637Z,-3.33
2023-02-03T20:05:52.978Z,-3.34
2023-02-03T20:09:02.027Z,-3.27
2023-02-03T20:12:04.485Z,-3.18
2023-02-03T20:15:07.368Z,-3.18
2023-02-03T20:18:09.771Z,-3.31
2023-02-03T20:21:13.663Z,-3.16
2023-02-03T20:24:16.083Z,-3.20
2023-02-03T20:27:19.202Z,-3.18
2023-02-03T20:30:21.626Z,-3.21
2023-02-03T20:33:27.585Z,-3.30
2023-02-03T20:36:30.681Z,-3.31
2023-02-03T20:39:33.082Z,-3.27
2023-02-03T20:42:35.466Z,-3.38
2023-02-03T20:45:38.376Z,-3.33
2023-02-03T20:48:41.016Z,-3.28
2023-02-03T20:51:43.477Z,-3.36
2023-02-03T20:54:46.373Z,-3.31
2023-02-03T20:57:51.584Z,-3.27
2023-02-03T21:00:57.343Z,-3.30
2023-02-03T21:04:18.172Z,-3.30
2023-02-03T21:07:21.205Z,-3.35
2023-02-03T21:10:25.159Z,-3.31
2023-02-03T21:13:30.859Z,-3.31
2023-02-03T21:16:39.358Z,-3.28
2023-02-03T21:19:42.504Z,-3.31
2023-02-03T21:22:44.884Z,-3.36
2023-02-03T21:25:48.208Z,-3.40
2023-02-03T21:28:53.066Z,-3.39
2023-02-03T21:31:56.116Z,-3.41
2023-02-03T21:34:58.686Z,-3.38
2023-02-03T21:38:02.820Z,-3.28
2023-02-03T21:41:21.253Z,-3.37
2023-02-03T21:44:33.239Z,-3.36
2023-02-03T21:47:35.617Z,-3.41
2023-02-03T21:50:42.222Z,-3.36
2023-02-03T21:53:59.246Z,-3.36
2023-02-03T21:57:01.848Z,-3.40
2023-02-03T22:00:36.374Z,-3.46
2023-02-03T22:03:43.225Z,-3.44
2023-02-03T22:06:54.098Z,-3.51
2023-02-03T22:09:56.450Z,-3.54
2023-02-03T22:12:58.809Z,-3.58
2023-02-03T22:16:01.603Z,-3.62
2023-02-03T22:19:04.160Z,-3.58
2023-02-03T22:22:06.584Z,-3.56
2023-02-03T22:25:09.167Z,-3.56
2023-02-03T22:28:11.624Z,-3.70
2023-02-03T22:31:14.534Z,-3.57
2023-02-03T22:34:17.373Z,-3.59
2023-02-03T22:37:19.791Z,-3.70
2023-02-03T22:40:22.220Z,-3.60
2023-02-03T22:43:24.639Z,-3.64
2023-02-03T22:46:27.103Z,-3.66
2023-02-03T22:49:29.472Z,-3.66
2023-02-03T22:52:32.067Z,-3.69
2023-02-03T22:55:34.361Z,-3.66
2023-02-03T22:58:36.753Z,-3.66
2023-02-03T23:01:39.104Z,-3.57
2023-02-03T23:04:41.453Z,-3.74
2023-02-03T23:07:45.136Z,-3.66
2023-02-03T23:10:48.343Z,-3.64
2023-02-03T23:13:50.764Z,-3.69
2023-02-03T23:16:53.258Z,-3.62
2023-02-03T23:19:55.582Z,-3.68
2023-02-03T23:22:57.927Z,-3.57
2023-02-03T23:26:00.258Z,-3.59
2023-02-03T23:29:02.637Z,-3.52
2023-02-03T23:32:05.846Z,-3.49
2023-02-03T23:35:27.980Z,-3.59
2023-02-03T23:38:30.355Z,-3.52
2023-02-03T23:41:32.898Z,-3.60
2023-02-03T23:44:35.294Z,-3.49
2023-02-03T23:47:37.738Z,-3.53
2023-02-03T23:50:40.096Z,-3.53
2023-02-03T23:53:42.431Z,-3.49
2023-02-03T23:56:44.861Z,-3.54
2023-02-03T23:59:47.289Z,-3.53
